createdAt,value
2018-06-10T00:01:12.371Z,53.50
2018-06-10T00:03:40.580Z,59.30
2018-06-10T00:06:08.866Z,50.83
2018-06-10T00:08:37.053Z,57.40
2018-06-10T00:11:05.350Z,54.73
2018-06-10T00:13:33.937Z,51.07
2018-06-10T00:16:02.191Z,48.93
2018-06-10T00:18:30.461Z,45.40
2018-06-10T00:20:58.742Z,45.30
2018-06-10T00:23:27.017Z,47.60
2018-06-10T00:25:54.982Z,39.33
2018-06-10T00:28:28.308Z,44.50
2018-06-10T00:30:56.537Z,46.20
2018-06-10T00:33:24.732Z,43.03
2018-06-10T00:35:52.781Z,43.47
2018-06-10T00:38:21.049Z,37.90
2018-06-10T00:40:49.361Z,35.27
2018-06-10T00:43:17.601Z,16.57
2018-06-10T00:45:45.898Z,8.63
2018-06-10T00:48:14.173Z,9.00
2018-06-10T00:50:42.450Z,11.23
2018-06-10T00:53:11.675Z,10.10
2018-06-10T00:55:39.925Z,13.87
2018-06-10T00:58:08.256Z,17.60
2018-06-10T01:00:36.478Z,21.20
2018-06-10T01:03:04.474Z,17.37
2018-06-10T01:05:32.728Z,20.10
2018-06-10T01:08:00.973Z,16.07
2018-06-10T01:10:29.301Z,20.40
2018-06-10T01:12:57.488Z,21.20
2018-06-10T01:15:25.668Z,17.30
2018-06-10T01:17:53.857Z,19.17
2018-06-10T01:20:22.063Z,16.70
2018-06-10T01:22:50.280Z,16.30
2018-06-10T01:25:18.472Z,17.70
2018-06-10T01:27:46.651Z,16.77
2018-06-10T01:30:14.815Z,22.03
2018-06-10T01:32:43.026Z,13.77
2018-06-10T01:35:11.228Z,11.80
2018-06-10T01:37:39.422Z,12.23
2018-06-10T01:40:07.620Z,12.00
2018-06-10T01:42:35.827Z,15.60
2018-06-10T01:45:04.063Z,16.97
2018-06-10T01:47:32.390Z,17.73
2018-06-10T01:50:00.921Z,17.50
2018-06-10T01:52:29.120Z,16.90
2018-06-10T01:54:57.495Z,21.10
2018-06-10T01:57:25.780Z,28.10
2018-06-10T01:59:54.080Z,20.77
2018-06-10T02:02:22.407Z,21.00
2018-06-10T02:04:50.631Z,19.87
2018-06-10T02:07:18.853Z,20.37
2018-06-10T02:09:47.045Z,22.13
2018-06-10T02:12:15.336Z,25.80
2018-06-10T02:14:43.613Z,24.47
2018-06-10T02:17:11.872Z,22.30
2018-06-10T02:19:40.123Z,33.13
2018-06-10T02:22:08.330Z,25.40
2018-06-10T02:24:36.553Z,25.27
2018-06-10T02:27:04.859Z,22.70
2018-06-10T02:29:33.112Z,30.10
2018-06-10T02:32:01.336Z,21.73
2018-06-10T02:34:29.511Z,21.73
2018-06-10T02:36:57.762Z,23.40
2018-06-10T02:39:26.068Z,24.37
2018-06-10T02:41:54.276Z,24.50
2018-06-10T02:44:22.605Z,22.00
2018-06-10T02:46:50.788Z,27.07
2018-06-10T02:49:19.049Z,27.60
2018-06-10T02:51:47.228Z,24.67
2018-06-10T02:54:15.589Z,29.10
2018-06-10T02:56:43.970Z,27.23
2018-06-10T02:59:12.207Z,26.57
2018-06-10T03:01:40.448Z,27.70
2018-06-10T03:04:08.764Z,29.80
2018-06-10T03:06:37.065Z,37.27
2018-06-10T03:09:06.848Z,34.10
2018-06-10T03:11:35.111Z,30.97
2018-06-10T03:14:03.328Z,52.87
2018-06-10T03:16:31.571Z,31.87
2018-06-10T03:18:59.837Z,30.63
2018-06-10T03:21:28.083Z,37.40
2018-06-10T03:23:56.313Z,35.43
2018-06-10T03:26:25.093Z,34.00
2018-06-10T03:28:53.409Z,31.03
2018-06-10T03:31:21.673Z,36.57
2018-06-10T03:33:49.897Z,35.47
2018-06-10T03:36:18.152Z,29.73
2018-06-10T03:38:46.476Z,36.00
2018-06-10T03:41:14.720Z,42.53
2018-06-10T03:43:42.681Z,35.67
2018-06-10T03:46:10.932Z,41.60
2018-06-10T03:48:39.207Z,40.60
2018-06-10T03:51:07.408Z,38.40
2018-06-10T03:53:35.617Z,39.93
2018-06-10T03:56:04.049Z,45.43
2018-06-10T03:58:32.274Z,44.13
2018-06-10T04:01:00.835Z,53.27
2018-06-10T04:03:29.027Z,46.97
2018-06-10T04:05:57.228Z,50.03
2018-06-10T04:08:25.786Z,46.73
2018-06-10T04:10:54.943Z,40.20
2018-06-10T04:13:23.553Z,40.80
2018-06-10T04:15:52.310Z,43.20
2018-06-10T04:18:20.308Z,39.40
2018-06-10T04:20:48.585Z,45.90
2018-06-10T04:23:16.853Z,48.53
2018-06-10T04:25:45.084Z,45.77
2018-06-10T04:28:13.280Z,41.83
2018-06-10T04:30:41.557Z,45.50
2018-06-10T04:33:09.610Z,49.67
2018-06-10T04:35:37.828Z,44.60
2018-06-10T04:38:06.043Z,54.70
2018-06-10T04:40:34.277Z,54.23
2018-06-10T04:43:02.481Z,52.60
2018-06-10T04:45:31.257Z,54.00
2018-06-10T04:47:59.499Z,48.67
2018-06-10T04:50:27.700Z,48.93
2018-06-10T04:52:56.261Z,57.50
2018-06-10T04:55:24.517Z,56.23
2018-06-10T04:57:52.712Z,50.53
2018-06-10T05:00:21.018Z,50.93
2018-06-10T05:02:49.256Z,56.93
2018-06-10T05:05:17.529Z,50.17
2018-06-10T05:07:45.792Z,57.70
2018-06-10T05:10:14.041Z,60.13
2018-06-10T05:12:42.773Z,59.57
2018-06-10T05:15:11.084Z,65.00
2018-06-10T05:17:39.420Z,57.03
2018-06-10T05:20:07.747Z,62.37
2018-06-10T05:22:35.984Z,66.77
2018-06-10T05:25:04.245Z,62.77
2018-06-10T05:27:43.051Z,59.80
2018-06-10T05:30:16.456Z,53.17
2018-06-10T05:32:44.704Z,57.20
2018-06-10T05:35:14.221Z,48.83
2018-06-10T05:37:48.069Z,45.27
2018-06-10T05:40:26.599Z,60.87
2018-06-10T05:42:55.096Z,51.17
2018-06-10T05:45:24.979Z,57.87
2018-06-10T05:47:53.048Z,56.33
2018-06-10T05:50:39.756Z,50.23
2018-06-10T05:53:21.473Z,47.17
2018-06-10T05:55:57.581Z,50.40
2018-06-10T06:01:23.564Z,47.77
2018-06-10T06:03:52.847Z,53.20
2018-06-10T06:06:21.832Z,56.47
2018-06-10T06:08:50.109Z,41.60
2018-06-10T06:11:23.521Z,38.93
2018-06-10T06:13:51.796Z,44.93
2018-06-10T06:16:20.241Z,40.90
2018-06-10T06:18:48.552Z,40.90
2018-06-10T06:26:31.784Z,42.73
2018-06-10T06:29:00.510Z,36.63
2018-06-10T06:31:29.553Z,39.13
2018-06-10T06:33:58.438Z,33.27
2018-06-10T06:36:26.926Z,34.30
2018-06-10T06:38:55.166Z,36.60
2018-06-10T06:41:23.997Z,33.53
2018-06-10T06:49:22.129Z,28.10
2018-06-10T06:51:50.428Z,25.93
2018-06-10T06:54:19.943Z,25.70
2018-06-10T06:56:48.721Z,24.30
2018-06-10T07:02:25.314Z,30.00
2018-06-10T07:04:54.077Z,22.47
2018-06-10T07:07:50.605Z,18.80
2018-06-10T07:10:19.082Z,21.80
2018-06-10T07:12:48.360Z,22.50
2018-06-10T07:15:24.560Z,21.10
2018-06-10T07:21:34.251Z,21.90
2018-06-10T07:24:07.519Z,19.20
2018-06-10T07:26:37.521Z,20.40
2018-06-10T07:29:06.064Z,21.70
2018-06-10T07:47:00.399Z,22.93
2018-06-10T07:58:38.314Z,20.60
2018-06-10T08:13:18.792Z,29.13
2018-06-10T08:15:59.089Z,30.60
2018-06-10T08:30:36.093Z,27.67
2018-06-10T08:33:04.627Z,29.20
2018-06-10T08:35:37.334Z,29.70
2018-06-10T08:38:05.757Z,28.23
2018-06-10T08:40:41.365Z,27.27
2018-06-10T08:43:10.261Z,33.73
2018-06-10T08:45:38.843Z,30.97
2018-06-10T08:48:07.910Z,29.47
2018-06-10T08:50:37.124Z,34.83
2018-06-10T08:53:05.645Z,30.80
2018-06-10T08:55:34.031Z,31.60
2018-06-10T08:58:02.454Z,37.00
2018-06-10T09:00:40.274Z,34.00
2018-06-10T09:03:09.762Z,36.73
2018-06-10T09:05:52.657Z,36.27
2018-06-10T09:08:24.734Z,35.23
2018-06-10T09:10:53.713Z,44.67
2018-06-10T09:13:22.272Z,40.23
2018-06-10T09:15:50.374Z,35.60
2018-06-10T09:18:19.912Z,41.93
2018-06-10T09:20:49.015Z,38.97
2018-06-10T09:23:17.530Z,41.93
2018-06-10T09:25:46.217Z,56.23
2018-06-10T09:28:14.712Z,41.23
2018-06-10T09:30:43.419Z,52.27
2018-06-10T09:33:12.824Z,56.57
2018-06-10T09:35:41.494Z,54.47
2018-06-10T09:38:10.102Z,46.80
2018-06-10T09:40:45.419Z,51.50
2018-06-10T09:43:13.857Z,58.13
2018-06-10T09:45:42.460Z,53.43
2018-06-10T09:48:11.079Z,48.63
2018-06-10T09:50:39.770Z,59.37
2018-06-10T09:53:08.048Z,49.97
2018-06-10T09:55:36.423Z,51.97
2018-06-10T10:01:01.201Z,46.77
2018-06-10T10:03:41.641Z,46.57
2018-06-10T10:09:27.027Z,50.47
2018-06-10T10:12:06.440Z,46.80
2018-06-10T10:18:01.248Z,76.87
2018-06-10T10:20:29.994Z,67.63
2018-06-10T10:22:58.459Z,75.30
2018-06-10T10:28:19.079Z,60.23
2018-06-10T10:30:48.003Z,68.53
2018-06-10T10:33:22.859Z,65.73
2018-06-10T10:35:52.126Z,69.70
2018-06-10T10:38:20.196Z,74.27
2018-06-10T10:43:24.420Z,75.50
2018-06-10T10:45:53.858Z,84.10
2018-06-10T10:48:41.763Z,81.87
2018-06-10T10:51:10.469Z,73.60
2018-06-10T10:56:50.293Z,88.43
2018-06-10T10:59:19.033Z,87.87
2018-06-10T11:01:47.773Z,79.03
2018-06-10T11:04:16.042Z,99.43
2018-06-10T11:06:44.408Z,77.93
2018-06-10T11:09:15.598Z,78.23
2018-06-10T11:11:48.024Z,84.77
2018-06-10T11:14:23.832Z,69.57
2018-06-10T11:16:53.393Z,74.10
2018-06-10T11:19:26.336Z,89.93
2018-06-10T11:21:57.546Z,77.20
2018-06-10T11:24:26.126Z,65.53
2018-06-10T11:26:54.477Z,79.90
2018-06-10T11:29:28.027Z,72.00
2018-06-10T11:31:56.461Z,67.97
2018-06-10T11:34:24.834Z,79.80
2018-06-10T11:36:53.983Z,74.97
2018-06-10T11:39:23.349Z,67.57
2018-06-10T11:41:53.474Z,67.80
2018-06-10T11:44:24.071Z,69.10
2018-06-10T11:49:49.133Z,56.07
2018-06-10T11:52:18.323Z,60.40
2018-06-10T11:54:47.181Z,60.03
2018-06-10T11:57:15.404Z,64.43
2018-06-10T11:59:43.363Z,62.70
2018-06-10T12:02:15.380Z,65.97
2018-06-10T12:04:43.657Z,66.70
2018-06-10T12:07:11.647Z,61.20
2018-06-10T12:09:44.138Z,60.50
2018-06-10T12:12:12.146Z,68.17
2018-06-10T12:14:40.437Z,67.40
2018-06-10T12:17:09.604Z,64.80
2018-06-10T12:19:37.863Z,62.30
2018-06-10T12:22:06.578Z,63.47
2018-06-10T12:24:42.874Z,66.63
2018-06-10T12:27:11.192Z,66.07
2018-06-10T12:29:40.864Z,71.33
2018-06-10T12:32:09.236Z,69.40
2018-06-10T12:34:38.669Z,72.47
2018-06-10T12:37:08.299Z,75.30
2018-06-10T12:39:36.718Z,67.83
2018-06-10T12:42:07.979Z,56.20
2018-06-10T12:44:36.264Z,61.07
2018-06-10T12:47:04.989Z,53.23
2018-06-10T12:49:33.230Z,58.07
2018-06-10T12:52:01.503Z,56.93
2018-06-10T12:54:29.933Z,55.90
2018-06-10T12:56:58.575Z,62.87
2018-06-10T12:59:26.760Z,55.80
2018-06-10T13:01:55.040Z,53.10
2018-06-10T13:04:23.892Z,54.40
2018-06-10T13:06:52.229Z,61.83
2018-06-10T13:09:20.478Z,52.27
2018-06-10T13:11:48.428Z,58.50
2018-06-10T13:14:18.082Z,52.83
2018-06-10T13:16:46.985Z,53.60
2018-06-10T13:19:15.517Z,51.87
2018-06-10T13:21:43.981Z,59.97
2018-06-10T13:24:12.351Z,56.57
2018-06-10T13:26:40.800Z,47.83
2018-06-10T13:29:09.070Z,51.90
2018-06-10T13:31:37.640Z,55.83
2018-06-10T13:34:05.933Z,52.23
2018-06-10T13:36:33.915Z,58.63
2018-06-10T13:39:01.860Z,60.80
2018-06-10T13:41:30.082Z,60.20
2018-06-10T13:43:58.352Z,59.70
2018-06-10T13:46:26.607Z,56.53
2018-06-10T13:48:54.952Z,58.97
2018-06-10T13:51:23.232Z,60.47
2018-06-10T13:53:51.483Z,66.07
2018-06-10T13:56:20.106Z,63.50
2018-06-10T13:58:48.623Z,60.03
2018-06-10T14:01:17.008Z,51.80
2018-06-10T14:03:45.216Z,66.10
2018-06-10T14:06:13.500Z,59.33
2018-06-10T14:08:41.804Z,60.70
2018-06-10T14:11:10.122Z,56.07
2018-06-10T14:13:38.425Z,65.33
2018-06-10T14:16:06.375Z,63.93
2018-06-10T14:18:34.668Z,64.87
2018-06-10T14:21:03.361Z,59.20
2018-06-10T14:23:31.609Z,52.90
2018-06-10T14:25:59.915Z,53.97
2018-06-10T14:28:28.284Z,48.30
2018-06-10T14:30:56.476Z,61.13
2018-06-10T14:33:25.540Z,57.43
2018-06-10T14:35:53.852Z,56.57
2018-06-10T14:38:22.313Z,59.60
2018-06-10T14:40:50.586Z,58.27
2018-06-10T14:43:18.859Z,56.23
2018-06-10T14:45:47.166Z,56.60
2018-06-10T14:48:15.414Z,55.10
2018-06-10T14:50:43.806Z,57.20
2018-06-10T14:53:12.063Z,58.00
2018-06-10T14:55:40.036Z,60.67
2018-06-10T14:58:08.441Z,56.30
2018-06-10T15:00:36.809Z,55.67
2018-06-10T15:03:04.989Z,61.57
2018-06-10T15:05:33.361Z,58.83
2018-06-10T15:08:01.802Z,62.63
2018-06-10T15:10:29.936Z,57.00
2018-06-10T15:12:57.932Z,53.30
2018-06-10T15:15:26.189Z,50.57
2018-06-10T15:17:54.503Z,45.47
2018-06-10T15:20:22.784Z,53.43
2018-06-10T15:22:51.156Z,39.00
2018-06-10T15:25:19.688Z,46.37
2018-06-10T15:27:47.953Z,40.33
2018-06-10T15:30:16.489Z,32.50
2018-06-10T15:32:44.852Z,30.00
2018-06-10T15:35:13.584Z,32.20
2018-06-10T15:37:41.744Z,29.40
2018-06-10T15:40:09.931Z,24.10
2018-06-10T17:04:35.699Z,25.80
2018-06-10T17:07:04.172Z,25.30
2018-06-10T17:09:32.114Z,23.40
2018-06-10T17:12:00.369Z,22.73
2018-06-10T17:14:28.654Z,21.50
2018-06-10T17:16:56.673Z,25.83
2018-06-10T17:19:24.612Z,22.10
2018-06-10T17:21:52.559Z,22.20
2018-06-10T17:24:20.541Z,23.90
2018-06-10T17:26:48.518Z,27.63
2018-06-10T17:29:16.489Z,25.00
2018-06-10T17:31:44.780Z,24.17
2018-06-10T17:34:12.793Z,29.60
2018-06-10T17:36:40.715Z,25.23
2018-06-10T17:39:08.748Z,27.37
2018-06-10T17:41:36.732Z,26.03
2018-06-10T17:44:04.728Z,30.70
2018-06-10T17:46:32.663Z,27.07
2018-06-10T17:49:00.693Z,31.40
2018-06-10T17:51:28.709Z,25.70
2018-06-10T17:53:56.794Z,25.47
2018-06-10T17:56:24.740Z,28.50
2018-06-10T17:58:52.670Z,26.90
2018-06-10T18:01:21.027Z,27.23
2018-06-10T18:03:49.037Z,26.03
2018-06-10T18:06:17.117Z,36.60
2018-06-10T18:08:45.045Z,30.30
2018-06-10T18:11:13.050Z,25.17
2018-06-10T18:13:41.076Z,24.83
2018-06-10T18:16:09.467Z,27.60
2018-06-10T18:18:38.538Z,26.80
2018-06-10T18:21:06.884Z,29.20
2018-06-10T18:23:35.134Z,24.30
2018-06-10T18:26:03.327Z,25.57
2018-06-10T18:28:31.497Z,23.57
2018-06-10T18:30:59.711Z,25.50
2018-06-10T18:33:27.651Z,21.27
2018-06-10T18:35:56.103Z,24.00
2018-06-10T18:38:24.358Z,24.60
2018-06-10T18:40:52.638Z,26.80
2018-06-10T18:43:20.649Z,24.93
2018-06-10T18:45:48.620Z,24.90
2018-06-10T18:48:16.620Z,26.70
2018-06-10T18:50:44.857Z,26.93
2018-06-10T18:53:12.853Z,26.47
2018-06-10T18:55:41.020Z,31.73
2018-06-10T18:58:09.552Z,28.23
2018-06-10T19:00:37.768Z,26.63
2018-06-10T19:03:08.101Z,28.37
2018-06-10T19:05:36.501Z,34.40
2018-06-10T19:08:05.066Z,26.47
2018-06-10T19:10:33.057Z,27.83
2018-06-10T19:13:01.226Z,29.77
2018-06-10T19:15:29.199Z,27.60
2018-06-10T19:17:57.734Z,30.13
2018-06-10T19:20:25.961Z,29.83
2018-06-10T19:22:54.872Z,35.17
2018-06-10T19:25:23.179Z,38.27
2018-06-10T19:27:51.697Z,29.43
2018-06-10T19:30:20.248Z,28.90
2018-06-10T19:32:48.779Z,29.00
2018-06-10T19:35:18.057Z,30.40
2018-06-10T19:37:46.366Z,33.90
2018-06-10T19:40:14.717Z,25.80
2018-06-10T19:42:43.409Z,28.20
2018-06-10T19:45:12.263Z,30.30
2018-06-10T19:47:40.784Z,32.80
2018-06-10T19:50:09.051Z,29.23
2018-06-10T19:52:37.060Z,32.07
2018-06-10T19:55:05.333Z,28.40
2018-06-10T19:57:33.788Z,29.43
2018-06-10T20:00:01.997Z,26.57
2018-06-10T20:02:29.949Z,26.93
2018-06-10T20:04:58.139Z,27.40
2018-06-10T20:07:26.328Z,28.90
2018-06-10T20:09:54.687Z,27.70
2018-06-10T20:12:22.989Z,25.03
2018-06-10T20:14:51.353Z,29.40
2018-06-10T20:17:19.580Z,25.43
2018-06-10T20:19:47.814Z,28.40
2018-06-10T20:22:16.169Z,29.67
2018-06-10T20:24:44.348Z,26.90
2018-06-10T20:27:12.327Z,34.33
2018-06-10T20:29:40.505Z,29.70
2018-06-10T20:32:08.727Z,31.07
2018-06-10T20:34:36.930Z,35.10
2018-06-10T20:37:05.157Z,36.57
2018-06-10T20:39:33.386Z,34.97
2018-06-10T20:42:01.607Z,30.10
2018-06-10T20:44:29.532Z,33.13
2018-06-10T20:46:57.501Z,35.70
2018-06-10T20:49:25.661Z,30.07
2018-06-10T20:51:55.316Z,29.40
2018-06-10T20:54:23.495Z,28.30
2018-06-10T20:56:51.726Z,28.23
2018-06-10T20:59:19.915Z,27.60
2018-06-10T21:01:48.177Z,32.00
2018-06-10T21:04:16.445Z,35.27
2018-06-10T21:06:44.929Z,33.47
2018-06-10T21:09:13.196Z,28.40
2018-06-10T21:11:41.480Z,33.17
2018-06-10T21:14:09.675Z,32.20
2018-06-10T21:16:37.856Z,32.13
2018-06-10T21:19:05.804Z,28.07
2018-06-10T21:21:34.080Z,31.13
2018-06-10T21:24:02.428Z,31.03
2018-06-10T21:26:30.711Z,34.13
2018-06-10T21:28:58.869Z,35.70
2018-06-10T21:31:26.798Z,33.40
2018-06-10T21:33:54.990Z,35.97
2018-06-10T21:36:23.197Z,32.70
2018-06-10T21:38:51.386Z,33.33
2018-06-10T21:41:19.599Z,34.90
2018-06-10T21:43:47.751Z,32.23
2018-06-10T21:46:15.664Z,35.80
2018-06-10T21:48:43.864Z,33.67
2018-06-10T21:51:12.039Z,31.60
2018-06-10T21:53:40.206Z,41.87
2018-06-10T21:56:08.371Z,33.23
2018-06-10T21:58:36.540Z,40.87
2018-06-10T22:01:04.456Z,35.77
2018-06-10T22:03:32.631Z,33.30
2018-06-10T22:06:01.343Z,36.33
2018-06-10T22:08:29.583Z,33.80
2018-06-10T22:10:57.780Z,31.03
2018-06-10T22:13:25.965Z,34.50
2018-06-10T22:15:54.159Z,32.27
2018-06-10T22:18:22.545Z,31.27
2018-06-10T22:20:50.788Z,28.00
2018-06-10T22:23:18.991Z,29.00
2018-06-10T22:25:47.222Z,29.50
2018-06-10T22:28:15.415Z,49.27
2018-06-10T22:30:43.635Z,35.27
2018-06-10T22:33:11.853Z,27.57
2018-06-10T22:35:40.060Z,31.03
2018-06-10T22:38:08.336Z,27.97
2018-06-10T22:40:36.520Z,37.77
2018-06-10T22:43:04.696Z,30.03
2018-06-10T22:45:32.936Z,29.63
2018-06-10T22:48:01.133Z,27.43
2018-06-10T22:50:29.331Z,29.90
2018-06-10T22:53:09.590Z,30.87
2018-06-10T22:55:37.801Z,28.70
2018-06-10T22:58:06.527Z,31.07
2018-06-10T23:00:35.277Z,25.57
2018-06-10T23:03:03.454Z,32.80
2018-06-10T23:05:31.628Z,32.00
2018-06-10T23:07:59.561Z,31.47
2018-06-10T23:10:27.764Z,33.70
2018-06-10T23:12:55.975Z,26.77
2018-06-10T23:15:24.150Z,31.20
2018-06-10T23:17:52.347Z,36.50
2018-06-10T23:20:20.556Z,34.33
2018-06-10T23:22:48.757Z,26.30
2018-06-10T23:25:16.920Z,32.03
2018-06-10T23:27:45.091Z,27.30
2018-06-10T23:30:13.284Z,28.33
2018-06-10T23:32:41.476Z,32.30
2018-06-10T23:35:09.619Z,29.43
2018-06-10T23:37:37.796Z,31.77
2018-06-10T23:40:05.954Z,39.33
2018-06-10T23:42:33.931Z,35.47
2018-06-10T23:45:02.132Z,37.00
2018-06-10T23:47:30.337Z,38.53
2018-06-10T23:49:58.543Z,40.00
2018-06-10T23:52:26.759Z,40.67
2018-06-10T23:54:55.023Z,43.60
2018-06-10T23:57:23.199Z,54.77
2018-06-10T23:59:51.480Z,46.70
